createdAt,value
2018-11-22T07:35:26.850Z,95173.96
2018-11-22T07:38:00.578Z,95178.17
2018-11-22T07:40:34.952Z,95170.35
2018-11-22T07:43:08.804Z,95173.76
2018-11-22T07:45:43.197Z,95176.75
2018-11-22T07:48:17.088Z,95180.27
2018-11-22T07:50:50.388Z,95183.90
2018-11-22T07:53:23.704Z,95181.06
2018-11-22T07:55:57.124Z,95183.41
2018-11-22T07:58:30.771Z,95176.42
2018-11-22T08:01:04.426Z,95178.06
2018-11-22T08:03:37.847Z,95170.48
2018-11-22T08:06:11.371Z,95170.63
2018-11-22T08:08:45.577Z,95173.12
2018-11-22T08:11:19.367Z,95172.77
2018-11-22T08:13:52.643Z,95174.11
2018-11-22T08:16:26.082Z,95175.63
2018-11-22T08:18:59.859Z,95170.11
2018-11-22T08:21:38.233Z,95167.92
2018-11-22T08:24:07.089Z,95167.30
2018-11-22T08:26:40.755Z,95162.36
2018-11-22T08:29:14.430Z,95162.46
2018-11-22T08:31:47.820Z,95164.67
2018-11-22T08:34:21.552Z,95171.05
2018-11-22T08:36:55.177Z,95170.13
2018-11-22T08:39:28.714Z,95171.97
2018-11-22T08:42:02.554Z,95171.51
2018-11-22T08:44:36.135Z,95166.81
2018-11-22T08:47:12.196Z,95169.01
2018-11-22T08:49:43.607Z,95165.92
2018-11-22T08:52:17.081Z,95173.00
2018-11-22T08:54:50.475Z,95178.15
2018-11-22T08:57:24.380Z,95177.81
2018-11-22T08:59:57.862Z,95176.92
2018-11-22T09:02:32.672Z,95176.64
2018-11-22T09:05:06.292Z,95178.19
2018-11-22T09:07:40.020Z,95183.33
2018-11-22T09:10:17.387Z,95175.00
2018-11-22T09:12:51.725Z,95177.39
2018-11-22T09:15:31.304Z,95174.26
2018-11-22T09:18:00.943Z,95181.56
2018-11-22T09:20:35.227Z,95178.53
2018-11-22T09:23:08.850Z,95182.63
2018-11-22T09:25:42.330Z,95186.59
2018-11-22T09:28:15.740Z,95183.84
2018-11-22T09:30:51.770Z,95182.44
2018-11-22T09:33:25.438Z,95183.44
2018-11-22T09:36:00.176Z,95184.84
2018-11-22T09:38:33.626Z,95184.73
2018-11-22T09:41:07.306Z,95179.41
2018-11-22T09:43:42.300Z,95179.80
2018-11-22T09:46:16.849Z,95180.93
2018-11-22T09:48:50.133Z,95183.30
2018-11-22T09:51:23.390Z,95181.09
2018-11-22T09:53:57.288Z,95177.34
2018-11-22T09:56:30.666Z,95169.59
2018-11-22T09:59:03.989Z,95177.27
2018-11-22T10:01:37.386Z,95177.69
2018-11-22T10:04:10.628Z,95171.75
2018-11-22T10:06:44.535Z,95174.20
2018-11-22T10:09:18.058Z,95174.08
2018-11-22T10:11:51.620Z,95173.39
2018-11-22T10:14:25.397Z,95173.97
2018-11-22T10:16:59.332Z,95168.86
2018-11-22T10:19:32.967Z,95176.28
2018-11-22T10:22:06.879Z,95176.33
2018-11-22T10:24:41.866Z,95176.00
2018-11-22T10:27:15.233Z,95178.24
2018-11-22T10:29:48.987Z,95177.83
2018-11-22T10:32:22.502Z,95178.45
2018-11-22T10:34:56.034Z,95176.27
2018-11-22T12:16:56.907Z,95159.00
2018-11-22T12:19:29.063Z,95161.00
2018-11-22T12:22:00.494Z,95158.00
2018-11-22T12:24:32.433Z,95159.00
2018-11-22T12:27:04.591Z,95156.00
2018-11-22T12:29:36.530Z,95159.00
2018-11-22T12:32:13.394Z,95163.00
2018-11-22T12:34:50.484Z,95155.00
2018-11-22T12:37:27.041Z,95160.00
2018-11-22T12:39:59.855Z,95160.00
2018-11-22T12:42:31.808Z,95152.00
2018-11-22T12:45:04.979Z,95145.00
2018-11-22T12:47:37.100Z,95153.00
2018-11-22T12:50:11.097Z,95155.00
2018-11-22T12:52:43.067Z,95158.00
2018-11-22T12:55:15.011Z,95162.00
2018-11-22T12:57:47.007Z,95161.00
2018-11-22T13:00:19.458Z,95160.00
2018-11-22T13:02:51.435Z,95162.00
2018-11-22T13:05:23.373Z,95163.00
2018-11-22T13:07:55.300Z,95158.00
2018-11-22T13:10:27.234Z,95162.00
2018-11-22T13:12:59.428Z,95163.00
2018-11-22T13:15:31.563Z,95163.00
2018-11-22T13:18:03.874Z,95167.00
2018-11-22T13:20:35.709Z,95166.00
2018-11-22T13:23:07.809Z,95169.00
2018-11-22T13:25:39.602Z,95172.00
2018-11-22T13:28:11.336Z,95177.00
2018-11-22T13:30:43.255Z,95180.00
2018-11-22T13:33:15.471Z,95181.00
2018-11-22T13:35:47.832Z,95189.00
2018-11-22T13:38:20.046Z,95185.00
2018-11-22T13:40:52.133Z,95192.00
2018-11-22T13:43:25.145Z,95191.00
2018-11-22T13:45:57.389Z,95182.00
2018-11-22T13:48:29.141Z,95187.00
2018-11-22T13:51:01.269Z,95183.00
2018-11-22T13:53:33.817Z,95189.00
2018-11-22T13:56:06.076Z,95189.00
2018-11-22T13:58:37.946Z,95190.00
2018-11-22T14:01:10.215Z,95194.00
2018-11-22T14:03:42.454Z,95196.00
2018-11-22T14:06:15.308Z,95201.00
2018-11-22T14:08:47.118Z,95203.00
2018-11-22T14:11:19.409Z,95202.00
2018-11-22T14:13:51.234Z,95203.00
2018-11-22T14:16:23.633Z,95200.00
2018-11-22T14:18:55.337Z,95201.00
2018-11-22T14:21:28.041Z,95202.00
2018-11-22T14:24:00.385Z,95199.00
2018-11-22T14:26:33.407Z,95209.00
2018-11-22T14:29:05.566Z,95205.00
2018-11-22T14:31:37.716Z,95201.00
2018-11-22T14:34:09.768Z,95205.00
2018-11-22T14:36:41.899Z,95203.00
2018-11-22T14:39:14.903Z,95203.00
2018-11-22T14:41:47.493Z,95206.00
2018-11-22T14:44:19.806Z,95210.00
2018-11-22T14:46:52.189Z,95210.00
2018-11-22T14:49:24.321Z,95215.00
2018-11-22T14:51:57.792Z,95217.00
2018-11-22T14:54:30.271Z,95214.00
2018-11-22T14:57:02.619Z,95220.00
2018-11-22T14:59:35.670Z,95227.00
2018-11-22T15:02:08.171Z,95227.00
2018-11-22T15:04:40.180Z,95235.00
2018-11-22T15:07:13.078Z,95234.00
2018-11-22T15:09:45.241Z,95234.00
2018-11-22T15:12:17.681Z,95236.00
2018-11-22T15:14:50.075Z,95237.00
2018-11-22T15:17:22.200Z,95242.00
2018-11-22T15:19:54.333Z,95243.00
2018-11-22T15:22:26.762Z,95245.00
2018-11-22T15:24:59.363Z,95241.00
2018-11-22T15:27:31.342Z,95244.00
2018-11-22T15:30:03.467Z,95245.00
2018-11-22T15:32:35.978Z,95248.00
2018-11-22T15:35:11.359Z,95254.00
2018-11-22T15:37:43.939Z,95256.00
2018-11-22T15:40:22.434Z,95259.00
2018-11-22T15:42:56.282Z,95261.00
2018-11-22T15:45:34.804Z,95259.00
2018-11-22T15:48:01.945Z,95265.00
2018-11-22T15:50:34.194Z,95265.00
2018-11-22T15:53:06.665Z,95269.00
2018-11-22T15:55:38.767Z,95269.00
2018-11-22T15:58:10.812Z,95274.00
2018-11-22T16:00:43.410Z,95273.00
2018-11-22T16:03:15.362Z,95270.00
2018-11-22T16:05:47.454Z,95268.00
2018-11-22T16:08:20.172Z,95272.00
2018-11-22T16:10:52.451Z,95280.00
2018-11-22T16:13:24.729Z,95281.00
2018-11-22T16:15:56.706Z,95288.00
2018-11-22T16:18:29.657Z,95291.00
2018-11-22T16:21:01.947Z,95288.00
2018-11-22T16:23:34.192Z,95289.00
2018-11-22T16:26:06.832Z,95293.00
2018-11-22T16:28:39.154Z,95295.00
2018-11-22T16:31:12.788Z,95297.00
2018-11-22T16:33:46.795Z,95306.00
2018-11-22T16:36:20.524Z,95312.00
2018-11-22T16:38:54.628Z,95310.00
2018-11-22T16:41:28.263Z,95314.00
2018-11-22T16:44:03.288Z,95314.00
2018-11-22T16:46:36.413Z,95320.00
2018-11-22T16:49:10.331Z,95319.00
2018-11-22T16:51:44.199Z,95326.00
2018-11-22T16:54:17.959Z,95319.00
2018-11-22T16:56:51.719Z,95323.00
2018-11-22T16:59:25.076Z,95331.00
2018-11-22T17:01:59.275Z,95323.00
2018-11-22T17:04:33.043Z,95324.00
2018-11-22T17:07:06.591Z,95327.00
2018-11-22T17:09:40.268Z,95325.00
2018-11-22T17:12:13.830Z,95332.00
2018-11-22T17:14:48.585Z,95331.00
2018-11-22T17:17:23.760Z,95334.00
2018-11-22T17:19:57.404Z,95335.00
2018-11-22T17:22:31.314Z,95340.00
2018-11-22T17:25:06.042Z,95333.00
2018-11-22T17:27:40.674Z,95339.00
2018-11-22T17:30:20.678Z,95343.00
2018-11-22T17:32:52.501Z,95342.00
2018-11-22T17:35:26.362Z,95350.00
2018-11-22T17:37:59.675Z,95351.00
2018-11-22T17:40:36.484Z,95351.00
2018-11-22T17:43:08.775Z,95351.00
2018-11-22T17:45:42.521Z,95354.00
2018-11-22T17:48:14.105Z,95347.00
2018-11-22T17:50:47.571Z,95348.00
2018-11-22T17:53:20.082Z,95359.00
2018-11-22T17:55:52.648Z,95363.00
2018-11-22T17:58:24.827Z,95363.00
2018-11-22T18:00:57.193Z,95360.00
2018-11-22T18:03:29.544Z,95363.00
2018-11-22T18:06:02.076Z,95370.00
2018-11-22T18:08:34.956Z,95371.00
2018-11-22T18:11:07.270Z,95376.00
2018-11-22T18:13:39.484Z,95369.00
2018-11-22T18:16:12.443Z,95371.00
2018-11-22T18:18:44.810Z,95370.00
2018-11-22T18:21:17.703Z,95370.00
2018-11-22T18:23:50.466Z,95368.00
2018-11-22T18:26:22.719Z,95371.00
2018-11-22T18:28:55.346Z,95368.00
2018-11-22T18:31:28.004Z,95371.00
2018-11-22T18:34:01.501Z,95375.00
2018-11-22T18:36:33.808Z,95369.00
2018-11-22T18:39:07.819Z,95369.00
2018-11-22T18:41:40.327Z,95364.00
2018-11-22T18:44:12.987Z,95366.00
2018-11-22T18:46:45.318Z,95372.00
2018-11-22T18:49:17.740Z,95372.00
2018-11-22T18:51:49.719Z,95372.00
2018-11-22T18:54:22.257Z,95377.00
2018-11-22T18:56:54.763Z,95377.00
2018-11-22T18:59:27.007Z,95374.00
2018-11-22T19:01:58.845Z,95373.00
2018-11-22T19:04:31.213Z,95376.00
2018-11-22T19:07:03.593Z,95383.00
2018-11-22T19:09:36.030Z,95388.00
2018-11-22T19:12:08.606Z,95388.00
2018-11-22T19:14:40.730Z,95386.00
2018-11-22T19:17:13.300Z,95389.00
2018-11-22T19:19:45.465Z,95386.00
2018-11-22T19:22:17.940Z,95389.00
2018-11-22T19:24:50.229Z,95389.00
2018-11-22T19:27:22.219Z,95386.00
2018-11-22T19:29:54.225Z,95385.00
2018-11-22T19:32:25.749Z,95387.00
2018-11-22T19:34:58.666Z,95386.00
2018-11-22T19:37:30.933Z,95387.00
2018-11-22T19:40:03.109Z,95393.00
2018-11-22T19:42:35.641Z,95394.00
2018-11-22T19:45:10.751Z,95394.00
2018-11-22T19:47:43.201Z,95398.00
2018-11-22T19:50:17.448Z,95397.00
2018-11-22T19:52:49.926Z,95396.00
2018-11-22T19:55:23.590Z,95392.00
2018-11-22T19:57:57.404Z,95391.00
2018-11-22T20:00:29.914Z,95391.00
2018-11-22T20:03:02.831Z,95397.00
2018-11-22T20:05:36.356Z,95399.00
2018-11-22T20:08:10.953Z,95390.00
2018-11-22T20:10:44.233Z,95401.00
2018-11-22T20:13:17.042Z,95399.00
2018-11-22T20:15:50.956Z,95400.00
2018-11-22T20:18:22.654Z,95405.00
2018-11-22T20:20:55.436Z,95411.00
2018-11-22T20:23:28.672Z,95413.00
2018-11-22T20:26:01.717Z,95413.00
2018-11-22T20:28:34.020Z,95410.00
2018-11-22T20:31:06.912Z,95410.00
2018-11-22T20:33:39.791Z,95416.00
2018-11-22T20:36:12.287Z,95409.00
2018-11-22T20:38:44.200Z,95411.00
2018-11-22T20:41:16.366Z,95412.00
2018-11-22T20:43:48.350Z,95411.00
2018-11-22T20:46:21.547Z,95409.00
2018-11-22T20:48:53.912Z,95414.00
2018-11-22T20:51:26.781Z,95414.00
2018-11-22T20:53:59.196Z,95413.00
2018-11-22T20:56:32.070Z,95417.00
2018-11-22T20:59:04.241Z,95413.00
2018-11-22T21:01:36.651Z,95422.00
2018-11-22T21:04:09.330Z,95419.00
2018-11-22T21:06:41.697Z,95418.00
2018-11-22T21:09:13.918Z,95426.00
2018-11-22T21:11:47.575Z,95424.00
2018-11-22T21:14:20.955Z,95427.00
2018-11-22T21:16:53.399Z,95422.00
2018-11-22T21:19:25.516Z,95418.00
2018-11-22T21:21:57.945Z,95412.00
2018-11-22T21:24:30.252Z,95410.00
2018-11-22T21:27:03.978Z,95419.00
2018-11-22T21:29:36.607Z,95418.00
2018-11-22T21:32:09.120Z,95422.00
2018-11-22T21:34:42.093Z,95414.00
2018-11-22T21:37:14.440Z,95415.00
2018-11-22T21:39:46.466Z,95410.00
2018-11-22T21:42:18.579Z,95410.00
2018-11-22T21:44:50.442Z,95408.00
2018-11-22T21:47:22.597Z,95411.00
2018-11-22T21:49:54.918Z,95407.00
2018-11-22T21:52:27.177Z,95409.00
2018-11-22T21:54:59.114Z,95409.00
2018-11-22T21:57:31.546Z,95413.00
2018-11-22T22:00:04.313Z,95414.00
2018-11-22T22:02:36.522Z,95415.00
2018-11-22T22:05:09.227Z,95413.00
2018-11-22T22:07:41.644Z,95409.00
2018-11-22T22:10:14.029Z,95417.00
2018-11-22T22:12:46.081Z,95414.00
2018-11-22T22:15:19.625Z,95417.00
2018-11-22T22:17:51.834Z,95418.00
2018-11-22T22:20:24.883Z,95412.00
2018-11-22T22:22:56.899Z,95414.00
2018-11-22T22:25:29.026Z,95416.00
2018-11-22T22:28:01.742Z,95406.00
2018-11-22T22:30:34.824Z,95406.00
2018-11-22T22:33:07.560Z,95410.00
2018-11-22T22:35:39.740Z,95412.00
2018-11-22T22:38:11.886Z,95408.00
2018-11-22T22:40:44.029Z,95410.00
2018-11-22T22:43:16.178Z,95415.00
2018-11-22T22:45:48.351Z,95409.00
2018-11-22T22:48:20.574Z,95408.00
2018-11-22T22:50:52.478Z,95408.00
2018-11-22T22:53:24.508Z,95410.00
2018-11-22T22:55:56.560Z,95407.00
2018-11-22T22:58:28.381Z,95413.00
2018-11-22T23:01:02.672Z,95413.00
2018-11-22T23:03:34.874Z,95416.00
2018-11-22T23:06:07.650Z,95420.00
2018-11-22T23:08:39.981Z,95418.00
2018-11-22T23:11:12.370Z,95413.00
2018-11-22T23:13:44.305Z,95418.00
2018-11-22T23:16:16.270Z,95418.00
2018-11-22T23:18:48.457Z,95423.00
2018-11-22T23:21:21.969Z,95419.00
2018-11-22T23:23:53.636Z,95420.00
2018-11-22T23:26:25.665Z,95414.00
2018-11-22T23:28:57.818Z,95414.00
2018-11-22T23:31:31.106Z,95419.00
2018-11-22T23:34:03.233Z,95421.00
2018-11-22T23:36:35.341Z,95422.00
2018-11-22T23:39:09.935Z,95420.00
2018-11-22T23:41:42.657Z,95431.00
2018-11-22T23:44:15.262Z,95432.00
2018-11-22T23:46:47.377Z,95429.00
2018-11-22T23:49:19.481Z,95433.00
2018-11-22T23:51:51.452Z,95430.00
2018-11-22T23:54:23.278Z,95428.00
2018-11-22T23:56:55.409Z,95429.00
2018-11-22T23:59:27.282Z,95433.00
